createdAt,value
2018-08-25T00:01:22.584Z,46.59
2018-08-25T00:03:51.224Z,46.63
2018-08-25T00:06:19.861Z,45.84
2018-08-25T00:08:48.373Z,46.13
2018-08-25T00:11:17.043Z,46.03
2018-08-25T00:13:45.632Z,46.23
2018-08-25T00:16:14.272Z,46.43
2018-08-25T00:18:43.127Z,46.73
2018-08-25T00:21:12.256Z,47.05
2018-08-25T00:23:41.313Z,46.87
2018-08-25T00:26:11.245Z,46.12
2018-08-25T00:28:39.789Z,46.50
2018-08-25T00:31:13.647Z,46.31
2018-08-25T00:33:42.242Z,46.37
2018-08-25T00:36:10.982Z,46.05
2018-08-25T00:38:39.698Z,45.98
2018-08-25T00:41:08.490Z,46.03
2018-08-25T00:43:38.068Z,45.86
2018-08-25T00:46:06.771Z,45.46
2018-08-25T00:48:35.481Z,45.38
2018-08-25T00:51:04.992Z,45.93
2018-08-25T00:53:33.819Z,45.58
2018-08-25T00:56:02.576Z,45.74
2018-08-25T00:58:32.290Z,46.33
2018-08-25T01:01:01.754Z,46.11
2018-08-25T01:03:30.397Z,46.31
2018-08-25T01:05:58.978Z,46.05
2018-08-25T01:08:27.621Z,45.59
2018-08-25T01:10:56.249Z,45.45
2018-08-25T01:13:25.700Z,46.28
2018-08-25T01:15:54.482Z,46.09
2018-08-25T01:18:23.139Z,45.34
2018-08-25T01:20:51.753Z,46.29
2018-08-25T01:23:20.536Z,46.28
2018-08-25T01:25:49.325Z,45.80
2018-08-25T01:28:18.030Z,45.66
2018-08-25T01:30:46.627Z,45.41
2018-08-25T01:33:15.251Z,45.55
2018-08-25T01:35:45.338Z,45.91
2018-08-25T01:38:14.907Z,45.85
2018-08-25T01:40:43.729Z,45.64
2018-08-25T01:43:13.128Z,45.74
2018-08-25T01:45:41.779Z,45.32
2018-08-25T01:48:10.606Z,46.19
2018-08-25T01:50:40.444Z,45.94
2018-08-25T01:53:09.059Z,46.40
2018-08-25T01:55:38.480Z,46.86
2018-08-25T01:58:08.137Z,46.96
2018-08-25T02:00:36.764Z,47.65
2018-08-25T02:03:05.329Z,47.78
2018-08-25T02:05:33.886Z,47.46
2018-08-25T02:08:05.158Z,47.18
2018-08-25T02:10:33.752Z,47.30
2018-08-25T02:13:02.534Z,47.42
2018-08-25T02:15:31.194Z,47.40
2018-08-25T02:17:59.979Z,46.99
2018-08-25T02:20:28.623Z,47.72
2018-08-25T02:22:57.429Z,47.98
2018-08-25T02:25:27.063Z,47.68
2018-08-25T02:27:56.266Z,47.75
2018-08-25T02:30:24.949Z,48.26
2018-08-25T02:32:53.611Z,48.43
2018-08-25T02:35:23.241Z,48.78
2018-08-25T02:37:51.937Z,49.20
2018-08-25T02:40:20.738Z,48.81
2018-08-25T02:42:49.706Z,48.65
2018-08-25T02:45:18.281Z,49.30
2018-08-25T02:47:46.948Z,49.52
2018-08-25T02:50:16.625Z,49.24
2018-08-25T02:52:45.184Z,49.26
2018-08-25T02:55:13.842Z,49.14
2018-08-25T02:57:42.408Z,49.34
2018-08-25T03:00:11.344Z,49.01
2018-08-25T03:02:40.298Z,49.49
2018-08-25T03:05:08.916Z,49.27
2018-08-25T03:07:37.642Z,49.34
2018-08-25T03:10:06.832Z,49.32
2018-08-25T03:12:35.437Z,48.84
2018-08-25T03:15:06.021Z,49.36
2018-08-25T03:17:34.579Z,49.33
2018-08-25T03:20:04.429Z,49.26
2018-08-25T03:22:33.467Z,49.40
2018-08-25T03:25:02.866Z,48.93
2018-08-25T03:27:31.641Z,48.49
2018-08-25T03:30:00.299Z,48.57
2018-08-25T03:32:29.556Z,49.00
2018-08-25T03:34:58.239Z,49.14
2018-08-25T03:37:26.778Z,49.14
2018-08-25T03:39:55.549Z,49.18
2018-08-25T03:42:24.159Z,49.21
2018-08-25T03:44:52.804Z,48.74
2018-08-25T03:47:22.158Z,49.26
2018-08-25T03:49:50.860Z,49.20
2018-08-25T03:52:19.409Z,49.94
2018-08-25T03:54:48.069Z,49.98
2018-08-25T03:57:17.218Z,49.79
2018-08-25T03:59:45.955Z,49.97
2018-08-25T04:02:15.167Z,50.32
2018-08-25T04:04:43.721Z,50.12
2018-08-25T04:07:12.376Z,49.86
2018-08-25T04:09:41.008Z,49.99
2018-08-25T04:12:09.764Z,50.21
2018-08-25T04:14:38.409Z,50.46
2018-08-25T04:17:07.591Z,50.68
2018-08-25T04:19:36.144Z,50.46
2018-08-25T04:22:04.660Z,50.39
2018-08-25T04:24:37.226Z,50.49
2018-08-25T04:27:06.838Z,50.73
2018-08-25T04:29:35.520Z,50.26
2018-08-25T04:32:05.404Z,50.31
2018-08-25T04:34:34.872Z,50.61
2018-08-25T04:37:04.508Z,50.28
2018-08-25T04:39:34.284Z,50.90
2018-08-25T04:42:03.686Z,50.37
2018-08-25T04:44:32.670Z,50.25
2018-08-25T04:47:01.527Z,49.75
2018-08-25T04:49:30.518Z,49.93
2018-08-25T04:51:59.124Z,50.04
2018-08-25T04:54:27.653Z,49.30
2018-08-25T04:56:56.376Z,49.38
2018-08-25T04:59:24.940Z,48.55
2018-08-25T05:01:53.655Z,48.90
2018-08-25T05:04:22.158Z,48.53
2018-08-25T05:06:50.681Z,48.87
2018-08-25T05:09:19.181Z,48.92
2018-08-25T05:11:47.881Z,48.81
2018-08-25T05:14:16.522Z,48.93
2018-08-25T05:16:45.451Z,49.23
2018-08-25T05:19:14.018Z,49.51
2018-08-25T05:21:42.720Z,49.53
2018-08-25T05:24:11.245Z,49.54
2018-08-25T05:26:39.795Z,50.00
2018-08-25T05:29:08.392Z,49.50
2018-08-25T05:31:37.088Z,49.59
2018-08-25T05:34:12.255Z,49.50
2018-08-25T05:36:40.892Z,49.54
2018-08-25T05:39:10.539Z,49.27
2018-08-25T05:41:39.498Z,48.89
2018-08-25T05:44:08.332Z,49.18
2018-08-25T05:46:36.934Z,49.25
2018-08-25T05:49:05.712Z,49.24
2018-08-25T05:51:34.317Z,49.33
2018-08-25T05:54:03.638Z,49.76
2018-08-25T05:56:32.567Z,49.34
2018-08-25T05:59:01.655Z,50.10
2018-08-25T06:01:30.700Z,50.31
2018-08-25T06:03:59.194Z,49.79
2018-08-25T06:06:27.776Z,51.02
2018-08-25T06:08:56.399Z,50.95
2018-08-25T06:11:25.144Z,51.29
2018-08-25T06:13:53.839Z,51.30
2018-08-25T06:16:22.410Z,51.37
2018-08-25T06:18:50.970Z,50.77
2018-08-25T06:21:19.587Z,49.88
2018-08-25T06:23:48.264Z,50.81
2018-08-25T06:26:17.607Z,51.00
2018-08-25T06:28:46.975Z,50.82
2018-08-25T06:31:16.148Z,50.35
2018-08-25T06:33:44.747Z,51.28
2018-08-25T06:36:13.381Z,50.41
2018-08-25T06:38:42.704Z,50.82
2018-08-25T06:41:11.569Z,51.19
2018-08-25T06:43:40.579Z,50.92
2018-08-25T06:46:11.431Z,50.93
2018-08-25T06:48:41.353Z,50.32
2018-08-25T06:51:10.810Z,49.85
2018-08-25T06:53:39.493Z,49.59
2018-08-25T06:56:08.949Z,49.37
2018-08-25T06:58:38.241Z,49.52
2018-08-25T07:01:07.153Z,50.43
2018-08-25T07:06:28.382Z,52.14
2018-08-25T07:08:57.050Z,53.06
2018-08-25T07:11:25.546Z,53.10
2018-08-25T07:13:54.173Z,53.73
2018-08-25T07:16:23.726Z,54.49
2018-08-25T07:18:52.430Z,55.23
2018-08-25T07:21:21.040Z,55.50
2018-08-25T07:23:50.524Z,55.59
2018-08-25T07:26:19.118Z,54.98
2018-08-25T07:28:49.087Z,55.52
2018-08-25T07:31:17.799Z,55.67
2018-08-25T07:33:47.480Z,55.63
2018-08-25T07:36:16.201Z,55.14
2018-08-25T07:38:45.989Z,55.08
2018-08-25T07:41:16.600Z,54.29
2018-08-25T07:43:45.226Z,54.83
2018-08-25T07:46:14.814Z,55.67
2018-08-25T07:48:43.455Z,55.44
2018-08-25T07:51:12.669Z,55.43
2018-08-25T07:53:41.637Z,55.65
2018-08-25T07:56:10.740Z,55.88
2018-08-25T07:58:39.420Z,55.86
2018-08-25T08:01:08.361Z,54.04
2018-08-25T08:03:38.022Z,53.30
2018-08-25T08:06:06.656Z,54.25
2018-08-25T08:08:36.380Z,52.99
2018-08-25T08:11:05.419Z,52.61
2018-08-25T08:13:34.155Z,52.99
2018-08-25T08:16:02.814Z,53.56
2018-08-25T08:18:32.170Z,53.43
2018-08-25T08:21:01.612Z,54.21
2018-08-25T08:23:30.839Z,54.74
2018-08-25T08:25:59.959Z,54.77
2018-08-25T08:28:29.040Z,55.60
2018-08-25T08:30:57.721Z,56.69
2018-08-25T08:33:27.399Z,55.44
2018-08-25T08:35:57.947Z,54.71
2018-08-25T08:38:26.650Z,54.42
2018-08-25T08:40:56.637Z,55.66
2018-08-25T08:43:25.267Z,55.27
2018-08-25T08:45:54.418Z,55.09
2018-08-25T08:48:25.969Z,54.92
2018-08-25T08:50:55.443Z,53.46
2018-08-25T08:53:24.902Z,53.33
2018-08-25T08:55:54.041Z,54.35
2018-08-25T08:58:22.666Z,53.51
2018-08-25T09:00:51.343Z,54.44
2018-08-25T09:03:20.044Z,55.39
2018-08-25T09:05:50.828Z,54.51
2018-08-25T09:08:19.549Z,54.88
2018-08-25T09:10:48.293Z,53.89
2018-08-25T09:13:17.224Z,53.80
2018-08-25T09:15:45.921Z,53.69
2018-08-25T09:18:14.512Z,52.07
2018-08-25T09:20:43.399Z,51.42
2018-08-25T09:23:11.878Z,51.39
2018-08-25T09:25:41.527Z,52.12
2018-08-25T09:28:10.260Z,52.42
2018-08-25T09:30:39.000Z,52.52
2018-08-25T09:33:07.836Z,52.74
2018-08-25T09:35:37.524Z,53.72
2018-08-25T09:38:07.795Z,54.53
2018-08-25T09:40:37.398Z,53.51
2018-08-25T09:43:07.105Z,53.49
2018-08-25T09:45:35.980Z,54.25
2018-08-25T09:48:04.774Z,54.42
2018-08-25T09:50:33.760Z,52.99
2018-08-25T09:53:03.808Z,51.93
2018-08-25T09:55:32.568Z,52.50
2018-08-25T09:58:02.396Z,52.39
2018-08-25T10:00:31.072Z,51.80
2018-08-25T10:03:00.072Z,51.96
2018-08-25T10:05:28.809Z,50.41
2018-08-25T10:07:57.459Z,50.61
2018-08-25T10:10:26.514Z,49.12
2018-08-25T10:12:55.279Z,49.58
2018-08-25T10:15:24.362Z,49.00
2018-08-25T10:17:53.119Z,49.45
2018-08-25T10:20:21.928Z,48.18
2018-08-25T10:22:51.017Z,48.04
2018-08-25T10:25:19.614Z,48.83
2018-08-25T10:27:48.323Z,49.20
2018-08-25T10:30:17.868Z,49.40
2018-08-25T10:32:46.551Z,47.10
2018-08-25T10:35:15.958Z,47.11
2018-08-25T10:37:44.677Z,45.10
2018-08-25T10:40:13.338Z,46.07
2018-08-25T10:42:42.010Z,44.39
2018-08-25T10:45:10.652Z,44.06
2018-08-25T10:47:45.967Z,45.74
2018-08-25T10:50:15.710Z,45.34
2018-08-25T10:52:44.537Z,45.25
2018-08-25T10:55:13.215Z,46.73
2018-08-25T10:57:42.251Z,46.85
2018-08-25T11:00:11.276Z,46.70
2018-08-25T11:02:41.128Z,46.57
2018-08-25T11:07:47.490Z,47.31
2018-08-25T11:10:16.480Z,47.68
2018-08-25T11:12:45.480Z,47.16
2018-08-25T11:15:24.387Z,48.16
2018-08-25T11:17:56.036Z,48.38
2018-08-25T11:20:24.947Z,51.10
2018-08-25T11:22:53.791Z,52.24
2018-08-25T11:25:22.866Z,53.30
2018-08-25T11:27:52.016Z,53.97
2018-08-25T11:30:20.691Z,55.21
2018-08-25T11:32:50.725Z,56.67
2018-08-25T11:35:19.347Z,57.22
2018-08-25T11:37:48.078Z,58.53
2018-08-25T11:40:16.798Z,59.23
2018-08-25T11:42:45.472Z,58.25
2018-08-25T11:45:14.274Z,58.29
2018-08-25T11:47:42.879Z,58.41
2018-08-25T11:50:11.626Z,59.07
2018-08-25T11:52:40.335Z,59.00
2018-08-25T11:55:10.645Z,58.02
2018-08-25T11:57:39.745Z,57.55
2018-08-25T12:00:09.686Z,58.06
2018-08-25T12:02:38.430Z,56.88
2018-08-25T12:05:08.170Z,57.42
2018-08-25T12:07:36.841Z,57.33
2018-08-25T12:10:06.173Z,57.03
2018-08-25T12:12:34.839Z,57.03
2018-08-25T12:15:05.441Z,55.79
2018-08-25T12:17:34.050Z,56.20
2018-08-25T12:20:04.792Z,55.69
2018-08-25T12:22:33.561Z,55.98
2018-08-25T12:25:02.480Z,55.69
2018-08-25T12:27:31.162Z,55.78
2018-08-25T12:29:59.653Z,56.51
2018-08-25T12:32:28.533Z,55.89
2018-08-25T12:34:58.242Z,55.88
2018-08-25T12:37:29.534Z,55.12
2018-08-25T12:40:01.005Z,54.98
2018-08-25T12:42:30.840Z,55.29
2018-08-25T12:45:01.232Z,54.52
2018-08-25T12:47:32.158Z,53.21
2018-08-25T12:50:00.748Z,53.62
2018-08-25T12:52:30.013Z,53.50
2018-08-25T12:54:58.680Z,54.22
2018-08-25T12:57:27.316Z,53.32
2018-08-25T12:59:55.860Z,53.23
2018-08-25T13:02:24.708Z,52.59
2018-08-25T13:04:53.216Z,51.56
2018-08-25T13:07:21.870Z,50.80
2018-08-25T13:09:50.572Z,48.16
2018-08-25T13:12:20.425Z,46.45
2018-08-25T13:14:48.996Z,46.86
2018-08-25T13:17:17.752Z,47.70
2018-08-25T13:19:46.920Z,48.24
2018-08-25T13:22:15.546Z,47.81
2018-08-25T13:24:44.558Z,47.17
2018-08-25T13:27:13.076Z,47.68
2018-08-25T13:29:41.696Z,47.96
2018-08-25T13:32:10.297Z,47.44
2018-08-25T13:34:38.852Z,47.10
2018-08-25T13:37:07.587Z,46.95
2018-08-25T13:39:36.091Z,46.64
2018-08-25T13:42:04.886Z,45.50
2018-08-25T13:44:34.065Z,44.27
2018-08-25T13:47:03.737Z,44.10
2018-08-25T13:49:32.270Z,43.51
2018-08-25T13:52:00.918Z,44.43
2018-08-25T13:54:30.225Z,44.61
2018-08-25T13:56:59.708Z,44.17
2018-08-25T13:59:28.250Z,44.33
2018-08-25T14:01:56.755Z,45.06
2018-08-25T14:04:25.974Z,45.84
2018-08-25T14:06:55.286Z,46.17
2018-08-25T14:09:25.333Z,46.13
2018-08-25T14:11:54.661Z,46.71
2018-08-25T14:14:23.297Z,47.20
2018-08-25T14:16:52.885Z,46.12
2018-08-25T14:19:24.582Z,45.46
2018-08-25T14:21:53.227Z,45.32
2018-08-25T14:24:22.875Z,45.48
2018-08-25T14:26:52.530Z,45.81
2018-08-25T14:29:21.405Z,44.75
2018-08-25T14:31:50.117Z,44.43
2018-08-25T14:34:18.703Z,43.48
2018-08-25T14:36:48.402Z,42.53
2018-08-25T14:39:17.244Z,43.63
2018-08-25T14:41:46.052Z,44.06
2018-08-25T14:44:14.711Z,43.89
2018-08-25T14:46:43.469Z,45.18
2018-08-25T14:49:12.963Z,44.82
2018-08-25T14:51:42.889Z,45.17
2018-08-25T14:54:12.573Z,45.45
2018-08-25T14:56:43.555Z,45.55
2018-08-25T14:59:12.212Z,46.01
2018-08-25T15:01:41.839Z,45.53
2018-08-25T15:04:12.484Z,46.25
2018-08-25T15:06:42.321Z,46.41
2018-08-25T15:09:13.345Z,46.79
2018-08-25T15:11:44.630Z,46.83
2018-08-25T15:14:14.620Z,47.62
2018-08-25T15:16:43.364Z,48.48
2018-08-25T15:19:12.474Z,50.13
2018-08-25T15:21:41.264Z,49.68
2018-08-25T15:24:10.603Z,49.67
2018-08-25T15:26:39.470Z,49.83
2018-08-25T15:29:08.529Z,52.05
2018-08-25T15:31:38.353Z,52.46
2018-08-25T15:34:08.045Z,50.84
2018-08-25T15:36:36.949Z,50.88
2018-08-25T15:39:12.951Z,48.67
2018-08-25T15:41:42.937Z,47.48
2018-08-25T15:44:12.493Z,47.68
2018-08-25T15:46:41.081Z,49.50
2018-08-25T15:49:09.793Z,47.78
2018-08-25T15:51:39.660Z,46.37
2018-08-25T15:54:10.039Z,46.69
2018-08-25T15:56:39.091Z,45.96
2018-08-25T15:59:07.770Z,47.32
2018-08-25T16:01:36.857Z,45.38
2018-08-25T16:04:05.745Z,44.20
2018-08-25T16:06:34.413Z,45.21
2018-08-25T16:09:05.348Z,45.52
2018-08-25T16:11:35.239Z,46.28
2018-08-25T16:14:04.849Z,46.58
2018-08-25T16:16:33.487Z,47.26
2018-08-25T16:19:02.786Z,48.72
2018-08-25T16:21:32.088Z,48.78
2018-08-25T16:24:02.437Z,49.19
2018-08-25T16:26:32.247Z,48.54
2018-08-25T16:29:00.871Z,48.47
2018-08-25T16:31:30.582Z,50.78
2018-08-25T16:33:59.563Z,50.38
2018-08-25T16:36:29.236Z,50.66
2018-08-25T16:39:09.649Z,50.04
2018-08-25T16:41:38.571Z,49.33
2018-08-25T16:44:07.320Z,50.21
2018-08-25T16:46:36.482Z,50.54
2018-08-25T16:49:05.533Z,50.26
2018-08-25T16:51:34.078Z,51.15
2018-08-25T16:54:05.495Z,51.10
2018-08-25T16:56:34.077Z,51.11
2018-08-25T16:59:04.133Z,51.36
2018-08-25T17:01:33.224Z,52.74
2018-08-25T17:04:02.431Z,52.10
2018-08-25T17:06:31.013Z,51.77
2018-08-25T17:08:59.659Z,52.26
2018-08-25T17:11:28.280Z,50.63
2018-08-25T17:13:57.363Z,50.55
2018-08-25T17:16:25.991Z,50.44
2018-08-25T17:18:54.551Z,50.16
2018-08-25T17:21:24.476Z,50.59
2018-08-25T17:23:53.880Z,50.80
2018-08-25T17:26:23.218Z,50.99
2018-08-25T17:28:52.514Z,51.35
2018-08-25T17:35:03.376Z,53.12
2018-08-25T17:37:34.276Z,53.29
2018-08-25T17:40:04.456Z,53.25
2018-08-25T17:42:33.838Z,53.50
2018-08-25T17:45:05.008Z,53.74
2018-08-25T17:47:33.623Z,53.91
2018-08-25T17:50:03.738Z,54.01
2018-08-25T17:52:32.374Z,53.83
2018-08-25T17:55:00.972Z,54.32
2018-08-25T17:57:29.930Z,54.40
2018-08-25T17:59:59.827Z,55.20
2018-08-25T18:02:28.755Z,55.17
2018-08-25T18:04:58.161Z,55.73
2018-08-25T18:07:27.000Z,55.97
2018-08-25T18:09:55.939Z,56.35
2018-08-25T18:12:26.059Z,56.41
2018-08-25T18:14:55.807Z,57.16
2018-08-25T18:17:24.796Z,56.95
2018-08-25T18:20:05.785Z,56.33
2018-08-25T18:22:36.752Z,56.51
2018-08-25T18:25:15.228Z,56.64
2018-08-25T18:27:45.125Z,56.94
2018-08-25T18:30:28.367Z,56.63
2018-08-25T18:33:02.624Z,56.67
2018-08-25T18:35:31.661Z,56.66
2018-08-25T18:38:00.626Z,57.08
2018-08-25T18:40:29.750Z,57.73
2018-08-25T18:42:58.535Z,57.58
2018-08-25T18:45:28.001Z,56.96
2018-08-25T18:47:57.414Z,57.47
2018-08-25T18:50:27.625Z,57.76
2018-08-25T18:52:56.314Z,57.94
2018-08-25T18:55:26.346Z,57.60
2018-08-25T18:57:55.754Z,57.98
2018-08-25T19:00:24.689Z,57.74
2018-08-25T19:02:55.813Z,57.74
2018-08-25T19:05:26.082Z,58.27
2018-08-25T19:07:54.938Z,59.42
2018-08-25T19:10:23.593Z,59.29
2018-08-25T19:12:52.420Z,59.67
2018-08-25T19:15:22.646Z,59.45
2018-08-25T19:17:55.497Z,60.06
2018-08-25T19:20:25.856Z,59.91
2018-08-25T19:22:54.748Z,60.38
2018-08-25T19:25:25.559Z,60.04
2018-08-25T19:27:54.273Z,59.75
2018-08-25T19:30:24.208Z,60.27
2018-08-25T19:32:55.017Z,59.66
2018-08-25T19:35:24.387Z,59.95
2018-08-25T19:37:53.551Z,60.06
2018-08-25T19:40:22.820Z,59.15
2018-08-25T19:42:51.705Z,59.49
2018-08-25T19:45:21.816Z,59.37
2018-08-25T19:47:50.634Z,59.28
2018-08-25T19:50:19.430Z,58.79
2018-08-25T19:52:47.977Z,58.98
2018-08-25T19:55:17.123Z,58.68
2018-08-25T19:57:48.657Z,59.12
2018-08-25T20:00:17.768Z,59.20
2018-08-25T20:02:46.795Z,58.77
2018-08-25T20:05:16.169Z,58.56
2018-08-25T20:07:44.841Z,58.85
2018-08-25T20:10:13.596Z,58.78
2018-08-25T20:12:42.646Z,59.07
2018-08-25T20:15:11.908Z,59.55
2018-08-25T20:17:40.657Z,59.63
2018-08-25T20:20:09.875Z,60.10
2018-08-25T20:22:38.918Z,59.94
2018-08-25T20:25:08.459Z,59.95
2018-08-25T20:27:38.176Z,60.12
2018-08-25T20:30:08.746Z,60.61
2018-08-25T20:32:37.302Z,60.65
2018-08-25T20:35:08.673Z,60.94
2018-08-25T20:37:37.579Z,60.28
2018-08-25T20:40:08.215Z,60.27
2018-08-25T20:42:38.290Z,60.40
2018-08-25T20:45:07.157Z,60.35
2018-08-25T20:47:36.269Z,60.41
2018-08-25T20:50:06.243Z,60.06
2018-08-25T20:52:37.947Z,60.25
2018-08-25T20:55:06.943Z,60.51
2018-08-25T20:57:37.201Z,60.17
2018-08-25T21:00:07.166Z,59.86
2018-08-25T21:02:37.497Z,59.93
2018-08-25T21:05:07.596Z,59.88
2018-08-25T21:07:36.802Z,60.38
2018-08-25T21:10:06.649Z,60.55
2018-08-25T21:12:35.863Z,59.71
2018-08-25T21:15:06.739Z,59.85
2018-08-25T21:17:35.587Z,59.25
2018-08-25T21:20:07.868Z,59.04
2018-08-25T21:22:36.629Z,59.07
2018-08-25T21:25:07.814Z,59.12
2018-08-25T21:27:38.502Z,59.24
2018-08-25T21:30:11.295Z,59.37
2018-08-25T21:32:44.783Z,60.41
2018-08-25T21:35:14.854Z,59.79
2018-08-25T21:37:43.798Z,60.23
2018-08-25T21:40:12.968Z,60.48
2018-08-25T21:42:41.542Z,60.90
2018-08-25T21:45:10.959Z,61.02
2018-08-25T21:47:59.393Z,60.84
2018-08-25T21:50:29.638Z,61.67
2018-08-25T21:52:59.002Z,61.02
2018-08-25T21:55:29.116Z,62.00
2018-08-25T21:57:57.643Z,62.21
2018-08-25T22:00:27.505Z,62.10
2018-08-25T22:02:56.200Z,61.95
2018-08-25T22:05:25.623Z,62.37
2018-08-25T22:07:54.609Z,62.33
2018-08-25T22:10:24.393Z,62.23
2018-08-25T22:12:53.248Z,62.79
2018-08-25T22:15:23.833Z,62.75
2018-08-25T22:17:52.510Z,63.05
2018-08-25T22:20:21.184Z,62.57
2018-08-25T22:22:49.867Z,63.10
2018-08-25T22:25:18.811Z,62.86
2018-08-25T22:27:47.445Z,62.85
2018-08-25T22:30:17.323Z,62.96
2018-08-25T22:32:46.117Z,63.04
2018-08-25T22:35:16.822Z,62.78
2018-08-25T22:37:46.158Z,63.03
2018-08-25T22:40:14.897Z,63.46
2018-08-25T22:42:44.520Z,63.62
2018-08-25T22:45:14.100Z,63.58
2018-08-25T22:47:42.770Z,63.58
2018-08-25T22:50:12.368Z,63.69
2018-08-25T22:52:46.370Z,63.58
2018-08-25T22:55:15.061Z,63.26
2018-08-25T22:57:44.658Z,63.05
2018-08-25T23:00:13.402Z,63.39
2018-08-25T23:02:42.238Z,63.50
2018-08-25T23:05:10.890Z,63.27
2018-08-25T23:07:39.915Z,62.86
2018-08-25T23:10:08.691Z,62.75
2018-08-25T23:12:37.370Z,62.31
2018-08-25T23:15:06.136Z,61.83
2018-08-25T23:17:35.777Z,62.37
2018-08-25T23:20:04.516Z,62.58
2018-08-25T23:22:34.956Z,62.58
2018-08-25T23:25:04.274Z,62.62
2018-08-25T23:27:33.126Z,62.40
2018-08-25T23:30:02.415Z,62.61
2018-08-25T23:32:31.242Z,62.59
2018-08-25T23:35:00.015Z,63.03
2018-08-25T23:37:29.002Z,62.74
2018-08-25T23:39:58.577Z,63.20
2018-08-25T23:42:27.776Z,62.91
2018-08-25T23:44:56.382Z,63.13
2018-08-25T23:47:25.798Z,63.21
2018-08-25T23:49:55.193Z,62.85
2018-08-25T23:52:24.349Z,63.56
2018-08-25T23:54:54.517Z,63.09
2018-08-25T23:57:23.067Z,63.63
2018-08-25T23:59:53.600Z,63.91
